Time;durP1;ratioP1;P1;durP2;ratioP2;P2;SDS_P1;SDS_P2;PMS_P1;PMS_P2;Temp;Humidity;BMP_temperature;BMP_pressure;BME280_temperature;BME280_humidity;BME280_pressure;Samples;Min_cycle;Max_cycle;Signal;HPM_P1;HPM_P2
2023/05/03 00:00:07;;;;;;;6.22;1.35;;;;;;;-146.25;85.11;52128.94;2087049;28;37228;-69
2023/05/03 00:01:09;;;;;;;4.80;1.60;;;;;;;-146.25;85.54;52149.22;2079409;28;26524;-67
2023/05/03 00:02:10;;;;;;;4.47;1.27;;;;;;;-146.25;85.20;52165.44;2079471;28;34003;-70
2023/05/03 00:03:13;;;;;;;7.07;1.42;;;;;;;-146.25;84.83;52181.66;2078876;28;35337;-68
2023/05/03 00:04:16;;;;;;;4.03;1.35;;;;;;;-146.25;85.49;52169.50;2079242;28;36472;-70
2023/05/03 00:05:18;;;;;;;4.22;1.38;;;;;;;-146.25;84.81;52169.50;2079942;28;30794;-69
2023/05/03 00:06:20;;;;;;;4.00;1.15;;;;;;;-146.25;85.41;52163.41;2079471;28;38938;-69
2023/05/03 00:07:22;;;;;;;4.10;1.48;;;;;;;-146.25;85.64;52159.34;2079304;28;34917;-69
2023/05/03 00:08:24;;;;;;;4.78;1.10;;;;;;;-146.25;85.07;52147.19;2076900;28;37925;-69
2023/05/03 00:09:26;;;;;;;4.43;1.50;;;;;;;-146.25;85.10;52161.38;2079611;28;29600;-69
2023/05/03 00:10:28;;;;;;;3.72;1.35;;;;;;;-146.25;85.14;52155.31;2087094;28;32778;-70
2023/05/03 00:11:33;;;;;;;4.63;1.45;;;;;;;-146.25;85.78;52149.22;2086693;28;37395;-69
2023/05/03 00:12:37;;;;;;;9.20;1.50;;;;;;;-146.25;86.03;52151.25;2070972;28;20037;-70
2023/05/03 00:13:39;;;;;;;7.90;1.70;;;;;;;-146.25;85.91;52169.50;2071169;28;36041;-69
2023/05/03 00:14:41;;;;;;;4.70;1.60;;;;;;;-146.25;85.97;52157.34;2079936;28;20854;-71
2023/05/03 00:15:42;;;;;;;3.63;1.20;;;;;;;-146.25;85.69;52197.88;2079140;28;33083;-68
2023/05/03 00:16:45;;;;;;;3.55;1.45;;;;;;;-146.25;86.52;52163.41;2079123;28;34015;-70
2023/05/03 00:17:47;;;;;;;5.80;1.63;;;;;;;-146.25;86.16;52177.59;2079542;28;36293;-69
2023/05/03 00:18:49;;;;;;;3.05;1.00;;;;;;;-146.25;85.79;52163.41;2079002;28;32887;-69
2023/05/03 00:19:54;;;;;;;3.88;0.80;;;;;;;-146.25;85.65;52212.06;2078647;28;38124;-69
2023/05/03 00:20:58;;;;;;;5.88;1.38;;;;;;;-146.25;86.17;52128.94;2078864;28;32815;-69
2023/05/03 00:22:00;;;;;;;3.97;1.40;;;;;;;-146.25;86.62;52179.63;2078227;28;35115;-68
2023/05/03 00:23:01;;;;;;;5.15;1.35;;;;;;;-146.25;86.14;52153.28;2078262;28;32188;-68
2023/05/03 00:24:04;;;;;;;3.13;1.30;;;;;;;-146.25;85.84;52165.44;2080333;28;20041;-68
2023/05/03 00:25:09;;;;;;;3.30;1.35;;;;;;;-146.25;85.80;52124.91;2079812;28;36328;-68
2023/05/03 00:26:11;;;;;;;6.13;1.40;;;;;;;-146.25;85.69;52185.72;2078757;28;35028;-70
2023/05/03 00:27:13;;;;;;;3.72;1.40;;;;;;;-146.25;86.39;52171.53;2079568;28;20149;-70
2023/05/03 00:28:15;;;;;;;4.05;1.35;;;;;;;-146.25;86.34;52122.88;2080475;28;20235;-70
2023/05/03 00:29:20;;;;;;;3.33;1.30;;;;;;;-146.25;85.82;52185.72;2087095;28;26634;-71
2023/05/03 00:30:24;;;;;;;5.32;1.77;;;;;;;-146.25;85.94;52141.13;2087264;28;22094;-69
2023/05/03 00:31:26;;;;;;;4.30;1.27;;;;;;;-146.25;86.01;52149.22;2079948;28;20102;-67
2023/05/03 00:32:27;;;;;;;6.15;1.55;;;;;;;-146.25;86.31;52165.44;2087374;28;31916;-69
2023/05/03 00:33:29;;;;;;;7.15;1.67;;;;;;;-146.25;85.87;52155.31;2079362;28;21384;-69
2023/05/03 00:34:31;;;;;;;4.00;1.60;;;;;;;-146.25;85.75;52171.53;2071724;28;20046;-69
2023/05/03 00:35:33;;;;;;;8.73;2.05;;;;;;;-146.25;85.92;52163.41;2079174;28;36088;-70
2023/05/03 00:36:35;;;;;;;5.30;1.40;;;;;;;-146.25;85.18;52167.47;2080501;28;20045;-71
2023/05/03 00:37:37;;;;;;;5.90;1.77;;;;;;;-146.25;85.83;52177.59;2080006;28;21569;-69
2023/05/03 00:38:40;;;;;;;8.07;1.88;;;;;;;-146.25;85.84;52185.72;2074633;28;29447;-68
2023/05/03 00:39:42;;;;;;;4.68;1.60;;;;;;;-146.25;85.02;52151.25;2080117;28;20057;-69
2023/05/03 00:40:45;;;;;;;3.13;1.40;;;;;;;-146.25;84.79;52175.56;2079563;28;20987;-70
2023/05/03 00:41:46;;;;;;;5.47;1.88;;;;;;;-146.25;85.24;52151.25;2078604;28;29311;-68
2023/05/03 00:42:48;;;;;;;3.63;1.55;;;;;;;-146.25;84.99;52185.72;2070821;28;32042;-69
2023/05/03 00:43:50;;;;;;;6.88;1.88;;;;;;;-146.25;85.44;52153.28;2071464;28;20185;-69
2023/05/03 00:44:54;;;;;;;5.05;2.03;;;;;;;-146.25;85.48;52157.34;2079655;28;20247;-69
2023/05/03 00:45:59;;;;;;;4.32;1.85;;;;;;;-146.25;85.19;52159.34;2079416;28;20835;-69
2023/05/03 00:47:15;;;;;;;3.60;1.55;;;;;;;-146.25;85.17;52169.50;2071206;28;30357;-69
2023/05/03 00:48:17;;;;;;;5.13;1.88;;;;;;;-146.25;85.46;52120.84;2065499;28;20057;-70
2023/05/03 00:49:20;;;;;;;5.05;1.48;;;;;;;-146.25;85.09;52173.56;2071614;28;26934;-69
2023/05/03 00:50:22;;;;;;;4.85;1.92;;;;;;;-146.25;85.33;52141.13;2078332;28;23233;-69
2023/05/03 00:51:26;;;;;;;3.38;1.33;;;;;;;-146.25;84.99;52153.28;2079103;28;28710;-67
2023/05/03 00:52:29;;;;;;;5.55;1.77;;;;;;;-146.25;85.21;52141.13;2070540;28;20046;-69
2023/05/03 00:53:31;;;;;;;5.32;1.52;;;;;;;-146.25;85.31;52153.28;2063384;28;20173;-69
2023/05/03 00:54:34;;;;;;;8.38;1.80;;;;;;;-146.25;85.66;52112.72;2062860;28;20045;-69
2023/05/03 00:55:36;;;;;;;5.22;1.70;;;;;;;-146.25;84.76;52169.50;2071503;28;20153;-69
2023/05/03 00:56:39;;;;;;;4.65;1.60;;;;;;;-146.25;85.00;52161.38;2071564;28;26848;-71
2023/05/03 00:57:51;;;;;;;5.95;1.88;;;;;;;-146.25;85.33;52151.25;2078884;28;27854;-71
2023/05/03 00:58:53;;;;;;;5.75;1.83;;;;;;;-146.25;85.09;52210.03;2079050;28;21057;-69
2023/05/03 01:00:00;;;;;;;3.80;1.40;;;;;;;-146.25;85.43;52169.50;2079004;28;20812;-71
2023/05/03 01:01:02;;;;;;;5.85;2.08;;;;;;;-146.25;85.12;52197.88;2071220;28;32912;-70
2023/05/03 01:02:04;;;;;;;5.63;1.63;;;;;;;-146.25;84.61;52181.66;2079134;28;22473;-67
2023/05/03 01:03:05;;;;;;;5.18;1.60;;;;;;;-146.25;85.19;52173.56;2078873;28;20737;-70
2023/05/03 01:04:08;;;;;;;5.82;1.80;;;;;;;-146.25;85.46;52167.47;2073111;28;20045;-70
2023/05/03 01:05:10;;;;;;;3.90;1.50;;;;;;;-146.25;85.35;52155.31;2073082;28;20870;-71
2023/05/03 01:06:31;;;;;;;5.70;1.88;;;;;;;-146.25;85.72;52143.13;2080876;28;20046;-70
2023/05/03 01:07:54;;;;;;;4.85;2.03;;;;;;;-146.25;84.81;52177.59;2072050;28;22030;-71
2023/05/03 01:09:20;;;;;;;4.13;1.50;;;;;;;-146.25;85.13;52137.06;2079857;28;26885;-71
2023/05/03 01:10:50;;;;;;;5.57;1.85;;;;;;;-146.25;85.02;52139.09;2081627;28;29187;-70
2023/05/03 01:12:10;;;;;;;6.38;1.70;;;;;;;-146.25;86.08;52193.81;2081339;28;20049;-71
2023/05/03 01:14:04;;;;;;;5.90;1.58;;;;;;;-146.25;85.59;52155.31;2081733;28;20038;-71
2023/05/03 01:15:55;;;;;;;5.20;1.60;;;;;;;-146.25;86.01;52197.88;2080656;28;21658;-69
2023/05/03 01:17:05;;;;;;;5.03;1.90;;;;;;;-146.25;84.78;52157.34;2080531;28;35749;-68
2023/05/03 01:18:20;;;;;;;5.68;1.83;;;;;;;-146.25;84.95;52171.53;2071976;28;20058;-69
2023/05/03 01:19:36;;;;;;;7.63;1.88;;;;;;;-146.25;85.07;52135.03;2075343;28;24831;-69
2023/05/03 01:20:45;;;;;;;5.75;1.92;;;;;;;-146.25;85.05;52159.34;2080730;28;26421;-71
2023/05/03 01:21:57;;;;;;;4.32;1.42;;;;;;;-146.25;84.87;52179.63;2073342;28;32687;-70
2023/05/03 01:23:30;;;;;;;8.20;1.73;;;;;;;-146.25;84.22;52210.03;2082854;28;20119;-69
2023/05/03 01:24:36;;;;;;;6.72;2.00;;;;;;;-146.25;84.55;52179.63;2083350;28;28684;-70
2023/05/03 01:25:37;;;;;;;6.63;1.77;;;;;;;-146.25;84.18;52195.84;2080329;28;30273;-69
2023/05/03 01:26:39;;;;;;;6.80;1.85;;;;;;;-146.25;84.35;52159.34;2081028;28;20894;-69
2023/05/03 01:27:42;;;;;;;5.55;1.60;;;;;;;-146.25;84.19;52159.34;2080802;28;27849;-69
2023/05/03 01:28:43;;;;;;;4.40;1.50;;;;;;;-146.25;83.45;52133.00;2088819;28;21217;-70
2023/05/03 01:29:45;;;;;;;3.97;1.75;;;;;;;-146.25;83.61;52179.63;2079986;28;34306;-69
2023/05/03 01:30:51;;;;;;;5.80;1.55;;;;;;;-146.25;83.78;52189.78;2071968;28;25705;-69
2023/05/03 01:32:00;;;;;;;3.92;1.65;;;;;;;-146.25;83.88;52177.59;2080058;28;29019;-69
2023/05/03 01:33:09;;;;;;;5.68;1.58;;;;;;;-146.25;83.63;52177.59;2071864;28;26563;-67
2023/05/03 01:34:22;;;;;;;6.30;1.90;;;;;;;-146.25;84.06;52173.56;2074300;28;25099;-71
2023/05/03 01:35:58;;;;;;;4.05;1.33;;;;;;;-146.25;84.17;52167.47;2072312;28;31066;-69
2023/05/03 01:37:04;;;;;;;6.72;2.00;;;;;;;-146.25;84.67;52151.25;2074618;28;20921;-69
2023/05/03 01:38:08;;;;;;;3.85;1.70;;;;;;;-146.25;84.50;52169.50;2073079;28;20038;-69
2023/05/03 01:39:47;;;;;;;3.63;1.38;;;;;;;-146.25;84.22;52173.56;2065233;28;20101;-69
2023/05/03 01:40:52;;;;;;;3.78;2.00;;;;;;;-146.25;84.88;52179.63;2080079;28;28072;-70
2023/05/03 01:41:55;;;;;;;4.28;2.05;;;;;;;-146.25;84.84;52161.38;2080356;28;28277;-69
2023/05/03 01:42:58;;;;;;;3.97;1.42;;;;;;;-146.25;84.63;52147.19;2080820;28;20045;-68
2023/05/03 01:44:02;;;;;;;4.70;1.95;;;;;;;-146.25;84.35;52169.50;2071812;28;36825;-69
2023/05/03 01:45:09;;;;;;;5.40;1.83;;;;;;;-146.25;84.58;52171.53;2073414;28;20097;-69
2023/05/03 01:46:12;;;;;;;5.78;1.85;;;;;;;-146.25;84.82;52165.44;2080386;28;24973;-69
2023/05/03 01:47:18;;;;;;;2.92;1.63;;;;;;;-146.25;84.35;52179.63;2073401;28;20084;-69
2023/05/03 01:48:22;;;;;;;3.35;1.65;;;;;;;-146.25;84.41;52141.13;2080739;28;20988;-69
2023/05/03 01:49:23;;;;;;;6.68;1.85;;;;;;;-146.25;84.77;52161.38;2080417;28;20864;-69
2023/05/03 01:50:25;;;;;;;5.20;2.03;;;;;;;-146.25;84.94;52112.72;2072289;28;20149;-69
2023/05/03 01:51:27;;;;;;;4.00;1.67;;;;;;;-146.25;84.76;52177.59;2071682;28;30633;-69
2023/05/03 01:52:29;;;;;;;4.95;1.60;;;;;;;-146.25;84.97;52218.16;2072333;28;27872;-69
2023/05/03 01:53:31;;;;;;;5.47;1.98;;;;;;;-146.25;84.67;52171.53;2072189;28;20077;-70
2023/05/03 01:54:33;;;;;;;6.78;1.65;;;;;;;-146.25;84.16;52165.44;2072172;28;30937;-69
2023/05/03 01:55:35;;;;;;;4.57;1.73;;;;;;;-146.25;84.62;52185.72;2080776;28;21026;-68
2023/05/03 01:56:37;;;;;;;2.78;1.00;;;;;;;-146.25;84.37;52149.22;2088727;28;20045;-69
2023/05/03 01:57:38;;;;;;;2.70;1.23;;;;;;;-146.25;84.37;52181.66;2072154;28;20042;-69
2023/05/03 01:58:40;;;;;;;4.95;1.33;;;;;;;-146.25;84.38;52161.38;2072524;28;20050;-69
2023/05/03 01:59:44;;;;;;;8.73;1.85;;;;;;;-146.25;84.58;52161.38;2072520;28;20904;-69
2023/05/03 02:00:47;;;;;;;3.72;1.60;;;;;;;-146.25;84.53;52161.38;2083970;28;21029;-69
2023/05/03 02:01:49;;;;;;;3.40;1.60;;;;;;;-146.25;84.64;52133.00;2079940;28;33320;-69
2023/05/03 02:02:51;;;;;;;2.65;1.33;;;;;;;-146.25;84.82;52189.78;2080441;28;31539;-69
2023/05/03 02:03:52;;;;;;;6.97;1.58;;;;;;;-146.25;84.00;52161.38;2096741;28;25435;-69
2023/05/03 02:04:54;;;;;;;6.03;1.40;;;;;;;-146.25;84.08;52141.13;2089171;28;26872;-69
2023/05/03 02:05:56;;;;;;;4.72;1.55;;;;;;;-146.25;84.27;52153.28;2088695;28;27591;-69
2023/05/03 02:06:58;;;;;;;4.43;1.60;;;;;;;-146.25;84.19;52151.25;2089693;28;20167;-69
2023/05/03 02:08:00;;;;;;;3.38;1.15;;;;;;;-146.25;84.21;52185.72;2088570;28;20073;-69
2023/05/03 02:09:02;;;;;;;4.65;1.25;;;;;;;-146.25;84.42;52210.03;2071916;28;20047;-69
2023/05/03 02:10:13;;;;;;;5.82;1.63;;;;;;;-146.25;84.39;52169.50;2080165;28;32085;-69
2023/05/03 02:11:15;;;;;;;3.88;1.40;;;;;;;-146.25;84.72;52199.91;2089850;28;20175;-69
2023/05/03 02:12:17;;;;;;;4.43;1.35;;;;;;;-146.25;84.60;52139.09;2088298;28;21015;-69
2023/05/03 02:13:19;;;;;;;5.13;1.50;;;;;;;-146.25;84.95;52167.47;2088627;28;20042;-69
2023/05/03 02:14:20;;;;;;;4.97;1.52;;;;;;;-146.25;84.84;52165.44;2080243;28;20108;-69
2023/05/03 02:15:22;;;;;;;5.57;1.45;;;;;;;-146.25;84.35;52183.69;2079350;28;31007;-68
2023/05/03 02:16:25;;;;;;;5.60;1.60;;;;;;;-146.25;84.70;52185.72;2080350;28;31165;-69
2023/05/03 02:17:26;;;;;;;3.53;1.42;;;;;;;-146.25;85.03;52161.38;2080331;28;26782;-70
2023/05/03 02:18:32;;;;;;;7.22;1.70;;;;;;;-146.25;84.86;52173.56;2080930;28;20982;-70
2023/05/03 02:19:34;;;;;;;4.78;1.55;;;;;;;-146.25;85.12;52161.38;2080860;28;28068;-70
2023/05/03 02:20:36;;;;;;;4.95;1.75;;;;;;;-146.25;84.94;52165.44;2081066;28;20049;-71
2023/05/03 02:21:38;;;;;;;6.13;1.70;;;;;;;-146.25;84.55;52177.59;2079592;28;29584;-71
2023/05/03 02:22:41;;;;;;;3.78;1.40;;;;;;;-146.25;85.15;52187.75;2072444;28;21540;-70
2023/05/03 02:23:42;;;;;;;6.80;1.65;;;;;;;-146.25;84.37;52141.13;2079965;28;20156;-70
2023/05/03 02:24:45;;;;;;;4.97;1.40;;;;;;;-146.25;84.82;52187.75;2080200;28;24793;-71
2023/05/03 02:25:50;;;;;;;3.53;1.70;;;;;;;-146.25;84.14;52179.63;2072888;28;20043;-69
2023/05/03 02:26:51;;;;;;;3.33;1.50;;;;;;;-146.25;84.49;52181.66;2080620;28;20057;-69
2023/05/03 02:27:53;;;;;;;4.55;1.42;;;;;;;-146.25;84.02;52173.56;2080333;28;30130;-69
2023/05/03 02:28:56;;;;;;;4.22;1.50;;;;;;;-146.25;84.79;52145.16;2080118;28;20049;-69
2023/05/03 02:30:03;;;;;;;4.47;1.38;;;;;;;-146.25;84.27;52179.63;2080832;28;20147;-67
2023/05/03 02:31:15;;;;;;;5.18;1.48;;;;;;;-146.25;84.36;52177.59;2079898;28;21180;-69
2023/05/03 02:32:17;;;;;;;6.00;1.45;;;;;;;-146.25;84.80;52157.34;2080496;28;20046;-69
2023/05/03 02:33:20;;;;;;;2.15;1.20;;;;;;;-146.25;85.61;52169.50;2079854;28;20061;-69
2023/05/03 02:34:23;;;;;;;4.55;1.50;;;;;;;-146.25;85.50;52177.59;2071706;28;21089;-68
2023/05/03 02:35:25;;;;;;;3.97;1.20;;;;;;;-146.25;84.62;52151.25;2072203;28;20196;-67
2023/05/03 02:36:27;;;;;;;2.17;1.38;;;;;;;-146.25;84.50;52173.56;2079883;28;20042;-70
2023/05/03 02:37:30;;;;;;;5.10;1.50;;;;;;;-146.25;84.76;52157.34;2088348;28;20045;-68
2023/05/03 02:38:32;;;;;;;6.82;1.85;;;;;;;-146.25;85.44;52167.47;2079836;28;20045;-70
2023/05/03 02:39:34;;;;;;;3.95;1.65;;;;;;;-146.25;85.15;52167.47;2080001;28;27349;-70
2023/05/03 02:40:37;;;;;;;3.60;1.60;;;;;;;-146.25;85.02;52169.50;2080607;28;20980;-70
2023/05/03 02:41:39;;;;;;;3.92;1.70;;;;;;;-146.25;85.30;52185.72;2073774;28;20034;-71
2023/05/03 02:42:41;;;;;;;5.15;1.50;;;;;;;-146.25;85.33;52165.44;2072153;28;20197;-70
2023/05/03 02:43:43;;;;;;;6.20;1.55;;;;;;;-146.25;84.87;52169.50;2080344;28;21033;-70
2023/05/03 02:44:45;;;;;;;4.63;1.70;;;;;;;-146.25;85.45;52175.56;2080529;28;26918;-69
2023/05/03 02:45:47;;;;;;;3.00;1.35;;;;;;;-146.25;84.55;52165.44;2080526;28;20054;-70
2023/05/03 02:46:50;;;;;;;3.50;1.30;;;;;;;-146.25;85.27;52167.47;2080367;28;21100;-70
2023/05/03 02:47:52;;;;;;;4.22;1.52;;;;;;;-146.25;84.92;52181.66;2079705;28;20042;-70
2023/05/03 02:48:55;;;;;;;4.45;1.40;;;;;;;-146.25;84.89;52165.44;2072244;28;20136;-70
2023/05/03 02:49:57;;;;;;;4.70;1.55;;;;;;;-146.25;85.72;52175.56;2071759;28;21228;-68
2023/05/03 02:50:58;;;;;;;3.45;1.70;;;;;;;-146.25;85.37;52195.84;2080158;28;20330;-70
2023/05/03 02:52:00;;;;;;;5.10;1.50;;;;;;;-146.25;85.63;52141.13;2088248;28;20034;-70
2023/05/03 02:53:03;;;;;;;3.95;1.33;;;;;;;-146.25;84.99;52206.00;2079707;28;23333;-69
2023/05/03 02:54:05;;;;;;;5.25;1.77;;;;;;;-146.25;85.57;52173.56;2080076;28;20045;-69
2023/05/03 02:55:10;;;;;;;4.15;1.55;;;;;;;-146.25;84.97;52177.59;2079591;28;20037;-69
2023/05/03 02:56:16;;;;;;;6.13;1.75;;;;;;;-146.25;84.92;52185.72;2072813;28;20940;-69
2023/05/03 02:57:17;;;;;;;4.18;1.70;;;;;;;-146.25;85.02;52181.66;2079948;28;20041;-70
2023/05/03 02:58:20;;;;;;;5.43;1.42;;;;;;;-146.25;85.32;52187.75;2079790;28;20042;-69
2023/05/03 02:59:21;;;;;;;5.10;1.55;;;;;;;-146.25;84.71;52189.78;2079984;28;20054;-70
2023/05/03 03:00:24;;;;;;;5.20;1.92;;;;;;;-146.25;85.91;52173.56;2080100;28;20153;-69
2023/05/03 03:01:27;;;;;;;3.28;1.70;;;;;;;-146.25;85.54;52175.56;2071254;28;25783;-69
2023/05/03 03:02:29;;;;;;;4.90;1.55;;;;;;;-146.25;85.48;52199.91;2072307;28;20055;-70
2023/05/03 03:03:31;;;;;;;4.80;1.55;;;;;;;-146.25;85.15;52193.81;2080170;28;20153;-70
2023/05/03 03:04:33;;;;;;;3.08;1.52;;;;;;;-146.25;85.56;52157.34;2080786;28;20038;-70
2023/05/03 03:05:35;;;;;;;2.97;1.20;;;;;;;-146.25;85.54;52175.56;2079865;28;20807;-70
2023/05/03 03:06:37;;;;;;;4.95;1.77;;;;;;;-146.25;85.04;52189.78;2079942;28;26098;-69
2023/05/03 03:07:39;;;;;;;3.47;1.50;;;;;;;-146.25;85.33;52218.16;2080081;28;20848;-70
2023/05/03 03:08:41;;;;;;;3.88;1.58;;;;;;;-146.25;85.40;52161.38;2079895;28;20050;-70
2023/05/03 03:09:43;;;;;;;5.55;1.45;;;;;;;-146.25;85.38;52185.72;2080195;28;20112;-70
2023/05/03 03:10:45;;;;;;;3.65;1.73;;;;;;;-146.25;85.92;52222.22;2071933;28;20043;-70
2023/05/03 03:11:47;;;;;;;2.97;1.38;;;;;;;-146.25;85.59;52218.16;2073415;28;29524;-70
2023/05/03 03:12:50;;;;;;;3.22;1.83;;;;;;;-146.25;86.33;52171.53;2080385;28;20042;-70
2023/05/03 03:14:05;;;;;;;2.60;1.52;;;;;;;-146.25;86.13;52169.50;2078032;28;20073;-70
2023/05/03 03:15:07;;;;;;;5.60;1.52;;;;;;;-146.25;86.17;52159.34;2081995;28;20038;-69
2023/05/03 03:16:09;;;;;;;4.78;1.73;;;;;;;-146.25;86.48;52141.13;2079642;28;25723;-70
2023/05/03 03:17:11;;;;;;;6.88;1.75;;;;;;;-146.25;86.93;52181.66;2072064;28;20878;-69
2023/05/03 03:18:13;;;;;;;4.70;1.45;;;;;;;-146.25;86.96;52177.59;2079745;28;22674;-70
2023/05/03 03:19:17;;;;;;;3.38;1.42;;;;;;;-146.25;86.69;52163.41;2079988;28;20109;-70
2023/05/03 03:20:19;;;;;;;3.20;1.55;;;;;;;-146.25;86.46;52175.56;2071799;28;26459;-70
2023/05/03 03:21:22;;;;;;;5.07;1.45;;;;;;;-146.25;87.32;52163.41;2071816;28;20046;-70
2023/05/03 03:22:26;;;;;;;5.47;1.60;;;;;;;-146.25;87.50;52161.38;2071245;28;20061;-70
2023/05/03 03:23:29;;;;;;;2.20;1.17;;;;;;;-146.25;87.23;52155.31;2072508;28;20086;-70
2023/05/03 03:24:32;;;;;;;2.78;1.40;;;;;;;-146.25;87.39;52165.44;2079583;28;20046;-70
2023/05/03 03:25:34;;;;;;;4.22;1.23;;;;;;;-146.25;87.75;52177.59;2088278;28;20905;-70
2023/05/03 03:26:35;;;;;;;2.65;1.40;;;;;;;-146.25;87.77;52183.69;2071515;28;20039;-70
2023/05/03 03:27:38;;;;;;;6.22;1.73;;;;;;;-146.25;87.30;52183.69;2062822;28;20031;-68
2023/05/03 03:28:41;;;;;;;5.97;1.70;;;;;;;-146.25;87.34;52173.56;2072002;28;20193;-69
2023/05/03 03:29:45;;;;;;;4.68;1.67;;;;;;;-146.25;87.41;52155.31;2072536;28;20046;-70
2023/05/03 03:30:47;;;;;;;4.38;1.50;;;;;;;-146.25;87.40;52177.59;2079761;28;20081;-70
2023/05/03 03:31:55;;;;;;;5.82;1.33;;;;;;;-146.25;87.99;52155.31;2079990;28;20042;-70
2023/05/03 03:32:57;;;;;;;3.20;1.38;;;;;;;-146.25;88.42;52193.81;2079544;28;20042;-70
2023/05/03 03:34:08;;;;;;;3.08;1.50;;;;;;;-146.25;88.37;52167.47;2088163;28;20037;-69
2023/05/03 03:35:10;;;;;;;5.75;1.30;;;;;;;-146.25;88.25;52193.81;2087114;28;28181;-70
2023/05/03 03:36:12;;;;;;;3.42;1.55;;;;;;;-146.25;88.22;52187.75;2079798;28;20100;-70
2023/05/03 03:37:20;;;;;;;1.92;1.65;;;;;;;-146.25;87.54;52165.44;2079512;28;20045;-70
2023/05/03 03:38:22;;;;;;;5.03;1.88;;;;;;;-146.25;88.65;52151.25;2080209;28;20049;-68
2023/05/03 03:39:30;;;;;;;4.15;1.50;;;;;;;-146.25;88.21;52155.31;2087554;28;20914;-70
2023/05/03 03:40:32;;;;;;;5.03;1.98;;;;;;;-146.25;88.63;52208.03;2088034;28;20898;-70
2023/05/03 03:41:34;;;;;;;4.53;1.70;;;;;;;-146.25;88.67;52128.94;2071254;28;20054;-70
2023/05/03 03:42:38;;;;;;;4.50;1.95;;;;;;;-146.25;88.66;52137.06;2065979;28;20106;-70
2023/05/03 03:43:40;;;;;;;5.22;1.33;;;;;;;-146.25;89.00;52171.53;2079283;28;20050;-69
2023/05/03 03:44:48;;;;;;;4.03;1.67;;;;;;;-146.25;88.68;52177.59;2072768;28;20038;-70
2023/05/03 03:45:50;;;;;;;5.57;2.28;;;;;;;-146.25;89.17;52183.69;2079525;28;23221;-70
2023/05/03 03:46:52;;;;;;;5.60;1.75;;;;;;;-146.25;89.51;52173.56;2080497;28;20029;-70
2023/05/03 03:47:56;;;;;;;4.20;1.80;;;;;;;-146.25;89.38;52173.56;2080134;28;21009;-70
2023/05/03 03:48:58;;;;;;;2.97;1.17;;;;;;;-146.25;89.33;52149.22;2087684;28;20147;-69
2023/05/03 03:50:03;;;;;;;4.30;2.15;;;;;;;-146.25;89.15;52206.00;2079283;28;20149;-69
2023/05/03 03:51:06;;;;;;;5.07;2.20;;;;;;;-146.25;89.61;52195.84;2071763;28;20865;-70
2023/05/03 03:52:14;;;;;;;4.47;1.67;;;;;;;-146.25;89.84;52177.59;2072178;28;20054;-70
2023/05/03 03:53:16;;;;;;;3.40;1.83;;;;;;;-146.25;89.78;52157.34;2080282;28;20093;-70
2023/05/03 03:54:19;;;;;;;3.92;1.70;;;;;;;-146.25;89.50;52185.72;2079388;28;20049;-69
2023/05/03 03:55:23;;;;;;;5.63;1.80;;;;;;;-146.25;89.80;52175.56;2071971;28;20097;-69
2023/05/03 03:56:27;;;;;;;5.13;1.60;;;;;;;-146.25;89.97;52187.75;2079121;28;20041;-70
2023/05/03 03:57:30;;;;;;;2.33;1.55;;;;;;;-146.25;90.18;52201.94;2079903;28;20128;-70
2023/05/03 03:58:33;;;;;;;4.75;1.63;;;;;;;-146.25;90.05;52181.66;2087537;28;20044;-70
2023/05/03 03:59:36;;;;;;;7.10;1.85;;;;;;;-146.25;89.76;52179.63;2071405;28;20058;-70
2023/05/03 04:00:38;;;;;;;3.65;1.70;;;;;;;-146.25;90.34;52185.72;2071942;28;20128;-70
2023/05/03 04:01:46;;;;;;;4.40;1.75;;;;;;;-146.25;90.25;52181.66;2071275;28;20050;-70
2023/05/03 04:02:49;;;;;;;2.88;1.30;;;;;;;-146.25;90.68;52169.50;2072782;28;20085;-70
2023/05/03 04:03:52;;;;;;;6.57;2.20;;;;;;;-146.25;90.49;52173.56;2079154;28;20120;-70
2023/05/03 04:04:54;;;;;;;4.88;1.55;;;;;;;-146.25;91.01;52187.75;2071554;28;20038;-68
2023/05/03 04:05:56;;;;;;;5.72;2.05;;;;;;;-146.25;90.97;52206.00;2079377;28;20903;-69
2023/05/03 04:06:59;;;;;;;1.83;1.30;;;;;;;-146.25;91.23;52193.81;2087807;28;20115;-70
2023/05/03 04:08:05;;;;;;;5.85;1.73;;;;;;;-146.25;91.52;52157.34;2087351;28;20054;-70
2023/05/03 04:09:10;;;;;;;5.82;1.92;;;;;;;-146.25;91.51;52185.72;2071030;28;20047;-69
2023/05/03 04:10:15;;;;;;;4.22;2.28;;;;;;;-146.25;91.89;52133.00;2065117;28;20963;-69
2023/05/03 04:11:20;;;;;;;4.78;2.08;;;;;;;-146.25;91.87;52212.06;2071870;28;20043;-70
2023/05/03 04:12:28;;;;;;;5.25;1.90;;;;;;;-146.25;92.10;52203.97;2073346;28;20046;-70
2023/05/03 04:13:32;;;;;;;3.42;1.70;;;;;;;-146.25;92.31;52206.00;2081965;28;20081;-71
2023/05/03 04:14:35;;;;;;;2.53;1.48;;;;;;;-146.25;92.24;52177.59;2087674;28;20045;-69
2023/05/03 04:15:38;;;;;;;3.42;1.70;;;;;;;-146.25;92.34;52179.63;2080674;28;20176;-70
2023/05/03 04:16:42;;;;;;;5.97;2.25;;;;;;;-146.25;92.51;52206.00;2063481;28;20043;-70
2023/05/03 04:17:49;;;;;;;5.95;2.35;;;;;;;-146.25;92.41;52157.34;2072956;28;20261;-70
2023/05/03 04:18:57;;;;;;;3.60;2.05;;;;;;;-146.25;92.57;52214.09;2079007;28;20038;-70
2023/05/03 04:20:09;;;;;;;3.10;2.05;;;;;;;-146.25;92.89;52181.66;2072272;28;20047;-70
2023/05/03 04:21:13;;;;;;;4.25;1.90;;;;;;;-146.25;92.95;52185.72;2071612;28;21141;-69
2023/05/03 04:22:20;;;;;;;3.72;2.25;;;;;;;-146.25;92.98;52201.94;2080734;28;20171;-69
2023/05/03 04:23:22;;;;;;;2.03;1.67;;;;;;;-146.25;93.16;52177.59;2087052;28;20049;-70
2023/05/03 04:24:24;;;;;;;4.68;2.20;;;;;;;-146.25;93.08;52133.00;2087072;28;20037;-70
2023/05/03 04:25:26;;;;;;;4.85;2.35;;;;;;;-146.25;93.28;52171.53;2087633;28;24213;-70
2023/05/03 04:26:34;;;;;;;6.40;2.42;;;;;;;-146.25;93.08;52179.63;2071413;28;20177;-70
2023/05/03 04:27:46;;;;;;;4.20;2.58;;;;;;;-146.25;93.63;52187.75;2074874;28;20276;-69
2023/05/03 04:28:50;;;;;;;6.57;2.03;;;;;;;-146.25;93.77;52197.88;2087731;28;20057;-69
2023/05/03 04:29:55;;;;;;;7.10;2.33;;;;;;;-146.25;93.14;52183.69;2079553;28;20049;-70
2023/05/03 04:30:57;;;;;;;4.70;2.30;;;;;;;-146.25;93.36;52201.94;2079154;28;26619;-70
2023/05/03 04:32:01;;;;;;;4.45;2.40;;;;;;;-146.25;93.61;52177.59;2079384;28;20038;-70
2023/05/03 04:33:03;;;;;;;3.45;2.00;;;;;;;-146.25;93.37;52199.91;2079561;28;20939;-69
2023/05/03 04:34:13;;;;;;;5.10;2.45;;;;;;;-146.25;93.36;52181.66;2079348;28;20176;-68
2023/05/03 04:35:18;;;;;;;6.43;2.25;;;;;;;-146.25;93.42;52173.56;2080402;28;20283;-69
2023/05/03 04:36:24;;;;;;;2.72;2.13;;;;;;;-146.25;93.28;52214.09;2079073;28;20046;-68
2023/05/03 04:37:30;;;;;;;4.60;2.45;;;;;;;-146.25;92.82;52206.00;2080011;28;20042;-69
2023/05/03 04:38:33;;;;;;;7.63;2.28;;;;;;;-146.25;93.05;52199.91;2079581;28;20050;-69
2023/05/03 04:39:36;;;;;;;5.32;2.47;;;;;;;-146.25;92.77;52199.91;2072528;28;20124;-69
2023/05/03 04:40:39;;;;;;;4.72;2.10;;;;;;;-146.25;92.68;52185.72;2072795;28;20042;-68
2023/05/03 04:41:44;;;;;;;5.82;2.65;;;;;;;-146.25;92.48;52201.94;2080616;28;20084;-68
2023/05/03 04:42:47;;;;;;;4.38;2.25;;;;;;;-146.25;92.90;52157.34;2080687;28;20127;-72
2023/05/03 04:43:49;;;;;;;5.28;2.50;;;;;;;-146.25;92.41;52232.34;2083193;28;21337;-69
2023/05/03 04:44:51;;;;;;;3.85;2.35;;;;;;;-146.25;92.93;52151.25;2080850;28;20872;-70
2023/05/03 04:45:53;;;;;;;4.70;2.50;;;;;;;-146.25;92.68;52167.47;2080960;28;20042;-70
2023/05/03 04:46:58;;;;;;;5.45;2.40;;;;;;;-146.25;92.54;52212.06;2080823;28;21089;-69
2023/05/03 04:48:04;;;;;;;6.30;2.67;;;;;;;-146.25;92.07;52189.78;2080728;28;21036;-68
2023/05/03 04:49:06;;;;;;;5.47;2.42;;;;;;;-146.25;92.00;52177.59;2080883;28;20982;-68
2023/05/03 04:50:09;;;;;;;4.63;2.45;;;;;;;-146.25;92.48;52181.66;2080459;28;21161;-66
2023/05/03 04:51:15;;;;;;;3.45;2.30;;;;;;;-146.25;92.13;52210.03;2080975;28;20109;-68
2023/05/03 04:52:18;;;;;;;2.47;1.60;;;;;;;-146.25;92.06;52214.09;2072525;28;20042;-66
2023/05/03 04:53:23;;;;;;;3.75;1.88;;;;;;;-146.25;92.05;52187.75;2072923;28;21038;-67
2023/05/03 04:54:37;;;;;;;3.35;2.03;;;;;;;-146.25;91.79;52179.63;2082031;28;20058;-68
2023/05/03 04:55:38;;;;;;;5.07;1.98;;;;;;;-146.25;91.82;52153.28;2080884;28;20045;-68
2023/05/03 04:56:40;;;;;;;3.88;1.60;;;;;;;-146.25;91.03;52161.38;2080776;28;20050;-68